Time;durP1;ratioP1;P1;durP2;ratioP2;P2;SDS_P1;SDS_P2;PMS_P1;PMS_P2;Temp;Humidity;BMP_temperature;BMP_pressure;BME280_temperature;BME280_humidity;BME280_pressure;Samples;Min_cycle;Max_cycle;Signal;HPM_P1;HPM_P2
2022/07/07 00:00:40;;;;;;;;;;;;;;;15.98;100.00;90997.72;5034558;28;19919;-69
2022/07/07 00:03:05;;;;;;;;;;;;;;;15.90;100.00;90990.59;5034655;28;19919;-69
2022/07/07 00:05:30;;;;;;;;;;;;;;;15.85;100.00;90996.97;5034298;28;20403;-69
2022/07/07 00:07:56;;;;;;;;;;;;;;;15.75;100.00;90986.69;5034449;28;19912;-69
2022/07/07 00:10:21;;;;;;;;;;;;;;;15.69;100.00;90994.19;5034502;28;20375;-69
2022/07/07 00:12:46;;;;;;;;;;;;;;;15.69;100.00;90994.19;5034396;28;20433;-69
2022/07/07 00:15:12;;;;;;;;;;;;;;;15.66;100.00;90989.53;5034315;28;20006;-69
2022/07/07 00:17:37;;;;;;;;;;;;;;;15.66;100.00;90989.53;5033175;28;19917;-69
2022/07/07 00:20:03;;;;;;;;;;;;;;;15.58;100.00;90993.84;5034193;28;19913;-68
2022/07/07 00:22:28;;;;;;;;;;;;;;;15.47;100.00;90995.44;5034180;28;20031;-68
2022/07/07 00:24:54;;;;;;;;;;;;;;;15.45;100.00;91000.31;5034174;28;20415;-69
2022/07/07 00:27:19;;;;;;;;;;;;;;;15.47;100.00;90989.28;5034261;28;19932;-68
2022/07/07 00:29:44;;;;;;;;;;;;;;;15.47;100.00;91000.78;5034030;28;19924;-68
2022/07/07 00:32:10;;;;;;;;;;;;;;;15.48;100.00;91001.56;5034033;28;19924;-68
2022/07/07 00:34:35;;;;;;;;;;;;;;;15.45;100.00;91004.91;5033980;28;19913;-68
2022/07/07 00:37:01;;;;;;;;;;;;;;;15.43;100.00;90999.09;5034006;28;19967;-68
2022/07/07 00:39:27;;;;;;;;;;;;;;;15.39;100.00;90998.22;5033916;28;20290;-69
2022/07/07 00:41:52;;;;;;;;;;;;;;;15.32;100.00;90993.44;5033926;28;19920;-68
2022/07/07 00:44:18;;;;;;;;;;;;;;;15.26;100.00;90987.50;5033815;28;19917;-68
2022/07/07 00:46:45;;;;;;;;;;;;;;;15.22;100.00;90986.59;5033809;28;19913;-68
2022/07/07 00:49:11;;;;;;;;;;;;;;;15.16;100.00;90998.66;5033627;28;19924;-68
2022/07/07 00:51:36;;;;;;;;;;;;;;;15.15;100.00;90994.44;5033585;28;19913;-69
2022/07/07 00:54:01;;;;;;;;;;;;;;;15.21;100.00;90992.31;5033694;28;20314;-69
2022/07/07 00:56:27;;;;;;;;;;;;;;;15.33;100.00;90996.88;5015778;28;19917;-69
2022/07/07 00:58:52;;;;;;;;;;;;;;;15.44;100.00;90998.75;5033469;28;20406;-69
2022/07/07 01:01:17;;;;;;;;;;;;;;;15.58;100.00;90999.19;5015707;28;19960;-69
2022/07/07 01:03:43;;;;;;;;;;;;;;;15.76;100.00;90996.31;5033573;28;19917;-69
2022/07/07 01:06:09;;;;;;;;;;;;;;;15.93;100.00;90992.59;5033392;28;20368;-69
2022/07/07 01:08:35;;;;;;;;;;;;;;;15.98;100.00;90997.72;5033294;28;19932;-69
2022/07/07 01:11:00;;;;;;;;;;;;;;;16.01;100.00;91005.09;5033259;28;19917;-69
2022/07/07 01:13:25;;;;;;;;;;;;;;;16.00;100.00;91003.53;5033383;28;19913;-68
2022/07/07 01:15:51;;;;;;;;;;;;;;;16.05;100.00;91016.72;5033331;28;19919;-68
2022/07/07 01:18:16;;;;;;;;;;;;;;;16.09;100.00;91001.47;5033136;28;19913;-69
2022/07/07 01:20:44;;;;;;;;;;;;;;;16.09;100.00;91004.16;5033122;28;19913;-68
2022/07/07 01:23:10;;;;;;;;;;;;;;;16.09;100.00;91006.84;5033125;28;20280;-68
2022/07/07 01:25:35;;;;;;;;;;;;;;;16.12;100.00;91004.28;5033033;28;19917;-68
2022/07/07 01:28:00;;;;;;;;;;;;;;;16.26;100.00;91003.13;5032661;28;19913;-68
2022/07/07 01:30:26;;;;;;;;;;;;;;;16.41;100.00;90997.00;5033034;28;19913;-68
2022/07/07 01:32:51;;;;;;;;;;;;;;;16.50;100.00;91000.34;5032795;28;19920;-68
2022/07/07 01:35:17;;;;;;;;;;;;;;;16.56;100.00;91007.03;5032924;28;19913;-68
2022/07/07 01:37:42;;;;;;;;;;;;;;;16.64;100.00;91002.63;5032764;28;20383;-68
2022/07/07 01:40:08;;;;;;;;;;;;;;;16.68;100.00;91007.00;5032782;28;20047;-68
2022/07/07 01:42:33;;;;;;;;;;;;;;;16.69;100.00;91005.09;5032670;28;20402;-68
2022/07/07 01:44:58;;;;;;;;;;;;;;;16.65;100.00;91009.56;5032602;28;19916;-69
2022/07/07 01:47:24;;;;;;;;;;;;;;;16.68;100.00;91004.31;5032670;28;19920;-69
2022/07/07 01:49:49;;;;;;;;;;;;;;;16.69;100.00;91002.41;5032472;28;20608;-69
2022/07/07 01:52:15;;;;;;;;;;;;;;;16.73;100.00;91006.00;5032583;28;19917;-70
2022/07/07 01:54:40;;;;;;;;;;;;;;;16.75;100.00;91006.44;5032478;28;19917;-70
2022/07/07 01:57:07;;;;;;;;;;;;;;;16.72;100.00;91001.72;5032428;28;20311;-70
2022/07/07 01:59:32;;;;;;;;;;;;;;;16.74;100.00;91002.19;5032302;28;19913;-70
2022/07/07 02:01:58;;;;;;;;;;;;;;;16.70;100.00;91003.97;5032404;28;19917;-70
2022/07/07 02:04:23;;;;;;;;;;;;;;;16.74;100.00;91007.56;5168763;23;19920;-77
2022/07/07 02:06:48;;;;;;;;;;;;;;;16.68;100.00;90998.16;5005302;28;19921;-70
2022/07/07 02:09:14;;;;;;;;;;;;;;;16.69;100.00;91002.41;5012599;28;19909;-70
2022/07/07 02:11:40;;;;;;;;;;;;;;;16.68;100.00;91011.59;5012836;28;19918;-70
2022/07/07 02:14:06;;;;;;;;;;;;;;;16.73;100.00;91012.16;5012544;28;19913;-70
2022/07/07 02:16:33;;;;;;;;;;;;;;;16.79;100.00;91009.19;5012346;28;19913;-70
2022/07/07 02:19:00;;;;;;;;;;;;;;;16.89;100.00;91008.72;5012376;28;19916;-68
2022/07/07 02:21:25;;;;;;;;;;;;;;;16.95;100.00;91012.69;4994702;28;20296;-69
2022/07/07 02:23:52;;;;;;;;;;;;;;;16.98;100.00;91017.38;5012392;28;19916;-68
2022/07/07 02:26:17;;;;;;;;;;;;;;;17.07;100.00;91018.00;5012157;28;20007;-68
2022/07/07 02:28:42;;;;;;;;;;;;;;;17.09;100.00;91017.66;5012315;28;19917;-68
2022/07/07 02:31:08;;;;;;;;;;;;;;;17.15;100.00;91010.88;5012214;28;19913;-69
2022/07/07 02:33:34;;;;;;;;;;;;;;;17.18;100.00;91007.50;5012268;28;19913;-68
2022/07/07 02:35:59;;;;;;;;;;;;;;;17.14;100.00;91010.09;5012054;28;19913;-69
2022/07/07 02:38:25;;;;;;;;;;;;;;;17.16;100.00;91009.75;4994582;28;20306;-69
2022/07/07 02:40:51;;;;;;;;;;;;;;;17.12;100.00;91008.91;5011557;28;19920;-69
2022/07/07 02:43:17;;;;;;;;;;;;;;;17.11;100.00;91007.34;5012131;28;19918;-68
2022/07/07 02:45:43;;;;;;;;;;;;;;;17.06;100.00;91009.16;5011959;28;19933;-69
2022/07/07 02:48:09;;;;;;;;;;;;;;;17.01;100.00;91012.09;5012041;28;19920;-69
2022/07/07 02:50:35;;;;;;;;;;;;;;;16.97;100.00;91011.22;5011998;28;19926;-69
2022/07/07 02:53:00;;;;;;;;;;;;;;;16.94;100.00;91013.81;5012017;28;19917;-69
2022/07/07 02:55:26;;;;;;;;;;;;;;;16.93;100.00;91010.34;5011833;28;19940;-69
2022/07/07 02:57:51;;;;;;;;;;;;;;;16.89;100.00;91009.50;5011964;28;20019;-70
2022/07/07 03:00:17;;;;;;;;;;;;;;;16.88;100.00;91010.59;5011847;28;19936;-69
2022/07/07 03:02:42;;;;;;;;;;;;;;;16.91;100.00;91017.19;5011898;28;19914;-69
2022/07/07 03:05:08;;;;;;;;;;;;;;;16.95;100.00;91007.31;5011511;28;20008;-69
2022/07/07 03:07:33;;;;;;;;;;;;;;;16.93;100.00;91007.66;5011860;28;19920;-69
2022/07/07 03:09:58;;;;;;;;;;;;;;;17.02;100.00;91013.63;5011794;28;20429;-69
2022/07/07 03:12:23;;;;;;;;;;;;;;;17.04;100.00;91015.97;5011803;28;19913;-69
2022/07/07 03:14:49;;;;;;;;;;;;;;;17.02;100.00;91023.63;5011699;28;20004;-69
2022/07/07 03:17:14;;;;;;;;;;;;;;;17.03;100.00;91022.50;5011776;28;19918;-69
2022/07/07 03:19:39;;;;;;;;;;;;;;;17.06;100.00;91025.28;4994118;28;19917;-69
2022/07/07 03:22:04;;;;;;;;;;;;;;;16.94;100.00;91025.34;5011753;28;20327;-70
2022/07/07 03:24:31;;;;;;;;;;;;;;;16.88;100.00;91024.03;5011539;28;20008;-70
2022/07/07 03:26:58;;;;;;;;;;;;;;;16.83;100.00;91026.97;5011630;28;20003;-70
2022/07/07 03:29:24;;;;;;;;;;;;;;;16.83;100.00;91024.28;5011698;28;20399;-70
2022/07/07 03:31:49;;;;;;;;;;;;;;;16.86;100.00;91015.53;5011611;28;19924;-70
2022/07/07 03:34:14;;;;;;;;;;;;;;;16.94;100.00;91021.88;5011456;28;19944;-70
2022/07/07 03:36:40;;;;;;;;;;;;;;;16.94;100.00;91011.13;5011920;28;19931;-70
2022/07/07 03:39:05;;;;;;;;;;;;;;;16.87;100.00;91010.94;5011561;28;19935;-71
2022/07/07 03:41:30;;;;;;;;;;;;;;;16.80;100.00;91011.53;5011549;28;20012;-70
2022/07/07 03:43:55;;;;;;;;;;;;;;;16.80;100.00;91008.84;5011525;28;19924;-69
2022/07/07 03:46:21;;;;;;;;;;;;;;;16.90;100.00;91013.72;5011326;28;19963;-70
2022/07/07 03:48:46;;;;;;;;;;;;;;;16.91;100.00;91009.91;5011445;28;19914;-69
2022/07/07 03:51:11;;;;;;;;;;;;;;;16.77;100.00;91004.94;5012822;28;20394;-69
2022/07/07 03:53:37;;;;;;;;;;;;;;;16.71;100.00;91005.53;5014838;28;19913;-70
2022/07/07 03:56:02;;;;;;;;;;;;;;;16.73;100.00;91001.41;5014971;28;19967;-70
2022/07/07 03:58:27;;;;;;;;;;;;;;;16.73;100.00;91006.00;5015036;28;20295;-70
2022/07/07 04:00:53;;;;;;;;;;;;;;;16.75;100.00;91003.75;5015012;28;20007;-70
2022/07/07 04:03:18;;;;;;;;;;;;;;;16.72;100.00;90999.81;5014879;28;19921;-70
2022/07/07 04:05:43;;;;;;;;;;;;;;;16.68;100.00;91003.53;5014578;28;19968;-70
2022/07/07 04:08:09;;;;;;;;;;;;;;;16.65;100.00;90999.59;5014809;28;20004;-70
2022/07/07 04:10:34;;;;;;;;;;;;;;;16.67;100.00;91007.34;5014786;28;19921;-70
2022/07/07 04:12:59;;;;;;;;;;;;;;;16.76;100.00;91008.00;5014775;28;20426;-70
2022/07/07 04:15:24;;;;;;;;;;;;;;;16.81;100.00;91007.72;5014565;28;20008;-70
2022/07/07 04:17:50;;;;;;;;;;;;;;;16.89;100.00;91004.13;5014690;28;19974;-70
2022/07/07 04:20:15;;;;;;;;;;;;;;;16.95;100.00;91008.09;5014499;28;20008;-70
2022/07/07 04:22:40;;;;;;;;;;;;;;;17.03;100.00;91014.44;5014535;28;19914;-70
2022/07/07 04:25:06;;;;;;;;;;;;;;;17.04;100.00;91011.41;5014376;28;19917;-69
2022/07/07 04:27:31;;;;;;;;;;;;;;;17.03;100.00;91009.81;5014468;28;19914;-70
2022/07/07 04:29:56;;;;;;;;;;;;;;;17.13;100.00;91011.22;5014404;28;19920;-70
2022/07/07 04:32:22;;;;;;;;;;;;;;;17.09;100.00;91014.97;5014371;28;19972;-70
2022/07/07 04:34:47;;;;;;;;;;;;;;;17.05;100.00;91021.03;5014230;28;19917;-71
2022/07/07 04:37:12;;;;;;;;;;;;;;;17.03;100.00;91012.50;5014285;28;20355;-70
2022/07/07 04:39:38;;;;;;;;;;;;;;;17.07;100.00;91012.63;5014252;28;19914;-70
2022/07/07 04:42:03;;;;;;;;;;;;;;;17.20;100.00;91010.63;5014213;28;19913;-70
2022/07/07 04:44:29;;;;;;;;;;;;;;;17.24;100.00;91022.25;5013865;28;19960;-70
2022/07/07 04:46:54;;;;;;;;;;;;;;;17.30;100.00;91018.97;5014121;28;19926;-70
2022/07/07 04:49:19;;;;;;;;;;;;;;;17.41;100.00;91023.81;5013932;28;20315;-70
2022/07/07 04:51:45;;;;;;;;;;;;;;;17.49;100.00;91026.31;5013992;28;19925;-71
2022/07/07 04:54:10;;;;;;;;;;;;;;;17.58;100.00;91035.00;5013849;28;20011;-70
2022/07/07 04:56:35;;;;;;;;;;;;;;;17.73;100.00;91024.63;5013916;28;19917;-70
2022/07/07 04:59:00;;;;;;;;;;;;;;;17.78;100.00;91016.25;5013784;28;20298;-70
2022/07/07 05:01:26;;;;;;;;;;;;;;;17.81;100.00;91026.31;5013829;28;19921;-70
2022/07/07 05:03:51;;;;;;;;;;;;;;;17.83;100.00;91024.06;5013167;28;20391;-70
2022/07/07 05:06:16;;;;;;;;;;;;;;;17.92;100.00;91025.44;5013284;28;19923;-69
2022/07/07 05:08:42;;;;;;;;;;;;;;;17.95;100.00;91026.66;5013938;28;19913;-72
2022/07/07 05:11:07;;;;;;;;;;;;;;;17.96;100.00;91020.13;5013552;28;20410;-71
2022/07/07 05:13:33;;;;;;;;;;;;;;;17.97;100.00;91024.38;4995881;28;20012;-73
2022/07/07 05:15:58;;;;;;;;;;;;;;;17.99;100.00;91027.53;5013203;28;19921;-72
2022/07/07 05:18:23;;;;;;;;;;;;;;;18.04;100.00;91013.78;5013277;28;19952;-72
2022/07/07 05:20:49;;;;;;;;;;;;;;;18.23;100.00;91015.72;5013178;28;19920;-70
2022/07/07 05:23:14;;;;;;;;;;;;;;;18.26;100.00;91015.78;5013219;28;20358;-71
2022/07/07 05:25:39;;;;;;;;;;;;;;;18.36;100.00;91008.31;5013049;28;19917;-71
2022/07/07 05:28:04;;;;;;;;;;;;;;;18.54;100.00;91009.44;5013441;28;19941;-72
2022/07/07 05:30:30;;;;;;;;;;;;;;;18.76;100.00;90999.88;5013220;28;20478;-71
2022/07/07 05:32:55;;;;;;;;;;;;;;;18.76;97.08;91006.03;5013284;28;19967;-71
2022/07/07 05:35:20;;;;;;;;;;;;;;;18.91;96.13;91006.31;5013306;28;19913;-71
2022/07/07 05:37:46;;;;;;;;;;;;;;;18.93;98.24;91012.13;5013103;28;19940;-71
2022/07/07 05:40:12;;;;;;;;;;;;;;;18.77;94.84;91007.59;5013111;28;19944;-70
2022/07/07 05:42:37;;;;;;;;;;;;;;;18.78;91.29;91013.78;5013035;28;19940;-71
2022/07/07 05:45:03;;;;;;;;;;;;;;;18.98;95.54;91011.84;5012830;28;19913;-71
2022/07/07 05:47:28;;;;;;;;;;;;;;;19.06;89.41;91014.31;5012896;28;19928;-70
2022/07/07 05:49:54;;;;;;;;;;;;;;;20.86;81.45;91017.41;5012951;28;19913;-72
2022/07/07 05:52:19;;;;;;;;;;;;;;;23.83;66.50;91016.22;5012869;28;19924;-69
2022/07/07 05:54:44;;;;;;;;;;;;;;;25.39;58.32;91017.81;5012809;28;20028;-69
2022/07/07 05:57:10;;;;;;;;;;;;;;;26.24;54.54;91016.47;5012736;28;19924;-69
2022/07/07 05:59:35;;;;;;;;;;;;;;;26.92;53.70;91023.25;5012766;28;19917;-69
2022/07/07 06:02:00;;;;;;;;;;;;;;;26.88;53.01;91015.13;5012962;28;20432;-69
2022/07/07 06:04:26;;;;;;;;;;;;;;;28.10;50.34;91014.34;5012305;28;20383;-70
2022/07/07 06:06:52;;;;;;;;;;;;;;;28.11;48.66;91024.09;5012679;28;19914;-71
2022/07/07 06:09:18;;;;;;;;;;;;;;;28.72;46.90;91026.59;5012631;28;19913;-71
2022/07/07 06:11:43;;;;;;;;;;;;;;;28.08;48.54;91017.47;5012580;28;19952;-72
2022/07/07 06:14:08;;;;;;;;;;;;;;;27.09;48.89;91020.34;5011657;28;20002;-71
2022/07/07 06:16:41;;;;;;;;;;;;;;;27.32;48.97;91022.44;5012281;28;19917;-72
2022/07/07 06:19:08;;;;;;;;;;;;;;;27.51;47.63;91028.44;5012411;28;19976;-73
2022/07/07 06:21:33;;;;;;;;;;;;;;;28.13;47.12;91027.97;5012348;28;20397;-73
2022/07/07 06:23:58;;;;;;;;;;;;;;;28.89;46.93;91037.28;5012268;28;19913;-74
2022/07/07 06:26:24;;;;;;;;;;;;;;;29.84;45.14;91033.06;5011883;28;19913;-72
2022/07/07 06:28:49;;;;;;;;;;;;;;;29.84;44.80;91032.31;5012231;28;19920;-72
2022/07/07 06:31:14;;;;;;;;;;;;;;;28.72;45.76;91038.38;5012255;28;19913;-72
2022/07/07 06:33:40;;;;;;;;;;;;;;;29.44;45.69;91037.81;5012225;28;20403;-72
2022/07/07 06:36:05;;;;;;;;;;;;;;;30.10;44.34;91037.59;5012073;28;19936;-73
2022/07/07 06:38:30;;;;;;;;;;;;;;;29.20;44.34;91034.38;5012181;28;19920;-73
2022/07/07 06:40:59;;;;;;;;;;;;;;;30.13;43.78;91040.69;5012169;28;19914;-73
2022/07/07 06:43:24;;;;;;;;;;;;;;;30.54;43.87;91034.63;5012066;28;19913;-74
2022/07/07 06:45:50;;;;;;;;;;;;;;;29.78;44.01;91037.50;5011895;28;19924;-73
2022/07/07 06:48:15;;;;;;;;;;;;;;;30.33;43.81;91041.41;5012007;28;20414;-73
2022/07/07 06:50:41;;;;;;;;;;;;;;;30.37;42.82;91033.84;5012019;28;20306;-73
2022/07/07 06:53:06;;;;;;;;;;;;;;;29.95;43.59;91036.34;5011984;28;19971;-73
2022/07/07 06:55:31;;;;;;;;;;;;;;;30.25;43.19;91040.00;5011887;28;19913;-73
2022/07/07 06:57:57;;;;;;;;;;;;;;;30.74;41.87;91034.53;5011919;28;20007;-74
2022/07/07 07:00:22;;;;;;;;;;;;;;;31.10;42.47;91037.16;5011922;28;19948;-74
2022/07/07 07:02:49;;;;;;;;;;;;;;;29.91;44.24;91037.63;5011816;28;20384;-74
2022/07/07 07:05:14;;;;;;;;;;;;;;;30.66;43.56;91039.44;5011667;28;19921;-74
2022/07/07 07:07:39;;;;;;;;;;;;;;;30.08;43.14;91042.75;5011771;28;19975;-74
2022/07/07 07:10:05;;;;;;;;;;;;;;;31.37;41.60;91045.06;5011811;28;19917;-74
2022/07/07 07:12:30;;;;;;;;;;;;;;;30.74;43.45;91031.78;5011806;28;19952;-74
2022/07/07 07:14:56;;;;;;;;;;;;;;;29.97;43.49;91039.41;5011695;28;19989;-74
2022/07/07 07:17:21;;;;;;;;;;;;;;;31.12;42.08;91032.75;5011983;28;20445;-74
2022/07/07 07:19:47;;;;;;;;;;;;;;;31.53;41.17;91036.75;5011612;28;20430;-73
2022/07/07 07:22:12;;;;;;;;;;;;;;;32.68;39.56;91029.41;5004832;28;20016;-75
2022/07/07 07:24:37;;;;;;;;;;;;;;;33.50;39.12;91035.69;4990765;28;20369;-74
2022/07/07 07:27:03;;;;;;;;;;;;;;;33.28;38.02;91037.63;4994893;28;19921;-73
2022/07/07 07:29:28;;;;;;;;;;;;;;;31.82;39.03;91037.50;4995649;28;20402;-73
2022/07/07 07:31:54;;;;;;;;;;;;;;;32.11;39.64;91036.66;4995572;28;19913;-73
2022/07/07 07:34:19;;;;;;;;;;;;;;;32.52;38.88;91037.81;4995514;28;19967;-72
2022/07/07 07:36:45;;;;;;;;;;;;;;;32.35;38.81;91037.91;4995255;28;19979;-75
2022/07/07 07:39:11;;;;;;;;;;;;;;;32.17;40.16;91034.91;4995467;28;19917;-74
2022/07/07 07:41:37;;;;;;;;;;;;;;;34.55;36.23;91036.88;4995504;28;19917;-75
2022/07/07 07:44:02;;;;;;;;;;;;;;;36.32;32.38;91029.75;4977859;28;19918;-76
2022/07/07 07:46:28;;;;;;;;;;;;;;;35.65;33.02;91031.53;4995370;28;20453;-73
2022/07/07 07:48:53;;;;;;;;;;;;;;;36.39;31.89;91030.19;4995283;28;19914;-75
2022/07/07 07:51:19;;;;;;;;;;;;;;;36.74;32.82;91026.97;4995299;28;19913;-74
2022/07/07 07:53:44;;;;;;;;;;;;;;;34.62;35.03;91031.09;4994806;28;19968;-72
2022/07/07 07:56:09;;;;;;;;;;;;;;;33.30;36.56;91013.91;4995192;28;19917;-74
2022/07/07 07:58:35;;;;;;;;;;;;;;;35.99;33.00;91025.69;4995242;28;19929;-74
2022/07/07 08:01:00;;;;;;;;;;;;;;;34.13;34.71;91028.28;4995163;28;19917;-75
2022/07/07 08:03:25;;;;;;;;;;;;;;;33.44;36.52;91022.91;4995023;28;20379;-74
2022/07/07 08:05:51;;;;;;;;;;;;;;;34.58;36.21;91024.19;4994740;28;19918;-76
2022/07/07 08:08:16;;;;;;;;;;;;;;;34.14;35.90;91010.47;4994576;28;20311;-74
2022/07/07 08:10:41;;;;;;;;;;;;;;;32.97;36.12;91018.19;4994880;28;20410;-74
2022/07/07 08:13:07;;;;;;;;;;;;;;;32.12;37.75;91027.19;4994386;28;20004;-75
2022/07/07 08:15:32;;;;;;;;;;;;;;;32.21;38.27;91026.56;4994735;28;19937;-73
2022/07/07 08:17:57;;;;;;;;;;;;;;;33.71;37.46;91027.84;4994550;28;20372;-75
2022/07/07 08:20:23;;;;;;;;;;;;;;;35.48;35.13;91027.56;4994795;28;19914;-74
2022/07/07 08:22:48;;;;;;;;;;;;;;;35.13;35.61;91025.06;4994320;28;19988;-75
2022/07/07 08:25:15;;;;;;;;;;;;;;;34.94;35.59;91040.88;4994455;28;19925;-71
2022/07/07 08:27:40;;;;;;;;;;;;;;;35.02;37.02;91038.56;4994831;28;19924;-73
2022/07/07 08:30:08;;;;;;;;;;;;;;;35.79;33.96;91033.69;4994653;28;19932;-71
2022/07/07 08:32:33;;;;;;;;;;;;;;;33.87;36.20;91027.66;4994798;28;19913;-74
2022/07/07 08:34:58;;;;;;;;;;;;;;;33.87;36.21;91038.69;4994518;28;20445;-71
2022/07/07 08:37:24;;;;;;;;;;;;;;;30.20;40.61;91040.53;4993015;28;19914;-73
2022/07/07 08:39:49;;;;;;;;;;;;;;;27.78;43.83;91033.97;4994461;28;19920;-71
2022/07/07 08:42:14;;;;;;;;;;;;;;;26.88;46.33;91036.19;4994206;28;19924;-71
2022/07/07 08:44:40;;;;;;;;;;;;;;;26.32;47.26;91039.00;4994166;28;19918;-70
2022/07/07 08:47:05;;;;;;;;;;;;;;;26.44;48.45;91035.03;4994611;28;20318;-72
2022/07/07 08:49:31;;;;;;;;;;;;;;;25.23;51.23;91035.78;4994400;28;20433;-73
2022/07/07 08:51:56;;;;;;;;;;;;;;;24.68;52.36;91039.06;4993900;28;19984;-72
2022/07/07 08:54:23;;;;;;;;;;;;;;;25.18;51.09;91044.38;4994070;28;20388;-71
2022/07/07 08:56:48;;;;;;;;;;;;;;;25.22;51.67;91043.19;4976679;28;19917;-73
2022/07/07 08:59:14;;;;;;;;;;;;;;;27.40;47.93;91036.75;4994076;28;20084;-73
2022/07/07 09:01:40;;;;;;;;;;;;;;;25.93;50.59;91034.66;4993865;28;19914;-74
2022/07/07 09:04:05;;;;;;;;;;;;;;;27.18;49.91;91043.69;4994042;28;19948;-72
2022/07/07 09:06:31;;;;;;;;;;;;;;;30.97;42.26;91035.13;4993133;28;20015;-72
2022/07/07 09:08:57;;;;;;;;;;;;;;;33.94;36.77;91044.75;4976241;28;20506;-69
2022/07/07 09:11:26;;;;;;;;;;;;;;;35.24;34.22;91046.75;4993783;28;19918;-71
2022/07/07 09:13:56;;;;;;;;;;;;;;;33.46;35.93;91037.81;4993623;28;19953;-72
2022/07/07 09:16:23;;;;;;;;;;;;;;;32.95;36.14;91026.91;4993656;28;20312;-73
2022/07/07 09:18:49;;;;;;;;;;;;;;;32.32;38.21;91025.00;4993636;28;19914;-74
2022/07/07 09:21:28;;;;;;;;;;;;;;;28.16;44.64;91032.59;4993213;28;19921;-73
2022/07/07 09:23:57;;;;;;;;;;;;;;;26.41;48.30;91022.22;4993678;28;20339;-71
2022/07/07 09:26:39;;;;;;;;;;;;;;;25.68;50.59;91034.03;4993456;28;19914;-71
2022/07/07 09:29:05;;;;;;;;;;;;;;;25.77;50.38;91020.75;4993556;28;19917;-71
2022/07/07 09:31:51;;;;;;;;;;;;;;;29.74;43.85;91029.34;4993471;28;20040;-70
2022/07/07 09:34:17;;;;;;;;;;;;;;;30.49;44.18;91027.69;4989416;28;19917;-70
2022/07/07 09:39:47;;;;;;;;;;;;;;;34.30;36.32;91031.56;4993337;28;20418;-71
2022/07/07 09:42:21;;;;;;;;;;;;;;;35.15;34.27;91028.13;4972107;28;19935;-70
2022/07/07 09:44:48;;;;;;;;;;;;;;;37.57;32.09;91033.56;4992804;28;19914;-71
2022/07/07 09:47:13;;;;;;;;;;;;;;;38.57;30.48;91029.03;4993155;28;20363;-74
2022/07/07 09:49:43;;;;;;;;;;;;;;;37.64;32.22;91022.09;4993124;28;19914;-72
2022/07/07 09:52:15;;;;;;;;;;;;;;;31.69;37.67;91016.66;4992853;28;19936;-72
2022/07/07 09:54:45;;;;;;;;;;;;;;;29.98;40.89;91015.50;4992946;28;20370;-71
2022/07/07 09:57:10;;;;;;;;;;;;;;;30.53;40.90;91011.09;4993093;28;19924;-72
2022/07/07 09:59:36;;;;;;;;;;;;;;;28.81;43.31;91013.16;4992978;28;20308;-72
2022/07/07 10:02:01;;;;;;;;;;;;;;;27.73;44.74;91014.09;4992922;28;20379;-72
2022/07/07 10:04:27;;;;;;;;;;;;;;;27.94;45.70;91006.78;4992515;28;20387;-72
2022/07/07 10:06:54;;;;;;;;;;;;;;;30.96;40.66;91006.09;4992372;28;19976;-72
2022/07/07 10:09:21;;;;;;;;;;;;;;;33.50;36.44;91018.38;4992751;28;19983;-72
2022/07/07 10:11:49;;;;;;;;;;;;;;;35.80;34.61;91026.91;4992809;28;19918;-72
2022/07/07 10:14:34;;;;;;;;;;;;;;;37.23;32.01;91023.75;4992669;28;19918;-72
2022/07/07 10:17:00;;;;;;;;;;;;;;;38.83;30.91;91023.66;4992747;28;19914;-73
2022/07/07 10:19:25;;;;;;;;;;;;;;;36.40;32.17;91006.81;4992353;28;19987;-72
2022/07/07 10:21:52;;;;;;;;;;;;;;;36.66;33.27;91012.69;4992141;28;19975;-73
2022/07/07 10:24:18;;;;;;;;;;;;;;;35.44;33.04;91010.34;4992544;28;19918;-72
2022/07/07 10:26:46;;;;;;;;;;;;;;;35.74;35.00;91011.41;4992401;28;19968;-72
2022/07/07 10:29:12;;;;;;;;;;;;;;;34.22;37.12;91008.97;4992387;28;19921;-72
2022/07/07 10:31:38;;;;;;;;;;;;;;;30.08;39.91;91012.56;4992325;28;19914;-72
2022/07/07 10:34:10;;;;;;;;;;;;;;;29.76;42.50;91009.72;4992275;28;19914;-72
2022/07/07 10:36:51;;;;;;;;;;;;;;;31.31;40.58;91000.84;4991859;28;19944;-72
2022/07/07 10:39:19;;;;;;;;;;;;;;;33.23;38.54;91002.34;4992373;28;19965;-72
2022/07/07 10:41:53;;;;;;;;;;;;;;;33.93;38.02;91012.06;4992340;28;19913;-72
2022/07/07 10:44:19;;;;;;;;;;;;;;;35.35;35.23;91005.56;4992209;28;19971;-72
2022/07/07 10:46:56;;;;;;;;;;;;;;;34.95;35.17;91000.94;4992174;28;19961;-72
2022/07/07 10:49:35;;;;;;;;;;;;;;;33.52;36.48;91008.41;4992173;28;19971;-72
2022/07/07 10:52:04;;;;;;;;;;;;;;;31.45;38.96;90996.94;4991927;28;19918;-72
2022/07/07 10:54:35;;;;;;;;;;;;;;;31.43;40.05;90988.34;4991875;28;19918;-71
2022/07/07 10:57:00;;;;;;;;;;;;;;;32.01;39.41;90999.22;4992316;28;20051;-72
2022/07/07 10:59:26;;;;;;;;;;;;;;;33.53;38.53;90993.41;4992087;28;20410;-72
2022/07/07 11:02:00;;;;;;;;;;;;;;;34.31;36.42;90991.66;4991535;28;19914;-73
2022/07/07 11:04:46;;;;;;;;;;;;;;;33.84;36.81;91000.94;4991659;28;19918;-73
2022/07/07 11:07:15;;;;;;;;;;;;;;;34.96;34.89;90982.34;4992375;28;20415;-72
2022/07/07 11:09:59;;;;;;;;;;;;;;;34.52;35.98;90994.38;4991978;28;20445;-72
2022/07/07 11:12:34;;;;;;;;;;;;;;;34.30;36.01;90981.84;4992075;28;19921;-72
2022/07/07 11:15:14;;;;;;;;;;;;;;;34.10;36.85;90977.50;4992111;28;19913;-71
2022/07/07 11:17:44;;;;;;;;;;;;;;;33.28;38.38;90979.69;4992247;28;20312;-71
2022/07/07 11:20:13;;;;;;;;;;;;;;;33.21;39.13;90982.72;4991512;28;20008;-72
2022/07/07 11:22:45;;;;;;;;;;;;;;;33.95;36.27;90979.25;4991812;28;19964;-72
2022/07/07 11:25:15;;;;;;;;;;;;;;;34.73;34.98;90972.63;4991627;28;19971;-74
2022/07/07 11:27:41;;;;;;;;;;;;;;;34.33;36.44;90980.94;4991938;28;19926;-71
2022/07/07 11:30:07;;;;;;;;;;;;;;;34.28;36.24;90970.50;4991207;28;20008;-72
2022/07/07 11:33:06;;;;;;;;;;;;;;;34.12;34.75;90972.28;4991823;28;19914;-71
2022/07/07 11:35:36;;;;;;;;;;;;;;;34.21;36.02;90963.25;4991369;28;19917;-71
2022/07/07 11:38:02;;;;;;;;;;;;;;;34.27;36.06;90968.97;4992024;28;19914;-72
2022/07/07 11:40:27;;;;;;;;;;;;;;;35.11;34.84;90966.69;4991763;28;19918;-71
2022/07/07 11:42:53;;;;;;;;;;;;;;;34.20;34.79;90970.00;4991826;28;19987;-71
2022/07/07 11:45:23;;;;;;;;;;;;;;;34.22;36.84;90965.53;4991638;28;19949;-70
2022/07/07 11:47:49;;;;;;;;;;;;;;;34.54;36.04;90969.03;4991729;28;20284;-72
2022/07/07 11:50:14;;;;;;;;;;;;;;;33.45;37.68;90961.00;4991201;28;19965;-71
2022/07/07 11:52:53;;;;;;;;;;;;;;;34.06;35.78;90962.25;4991584;28;19922;-71
2022/07/07 11:55:19;;;;;;;;;;;;;;;33.69;37.22;90959.31;4974022;28;20311;-71
2022/07/07 11:57:55;;;;;;;;;;;;;;;34.36;34.98;90964.25;4991608;28;19921;-70
2022/07/07 12:00:22;;;;;;;;;;;;;;;34.38;36.05;90961.78;5018516;28;19928;-68
2022/07/07 12:02:49;;;;;;;;;;;;;;;32.80;36.67;90950.66;5030804;28;19924;-67
2022/07/07 12:05:18;;;;;;;;;;;;;;;31.88;37.94;90958.75;5010321;28;19970;-66
2022/07/07 12:07:51;;;;;;;;;;;;;;;33.71;36.48;90953.34;5016496;28;19925;-68
2022/07/07 12:10:33;;;;;;;;;;;;;;;34.26;35.44;90951.63;5010936;28;19909;-68
2022/07/07 12:13:03;;;;;;;;;;;;;;;35.95;34.40;90950.31;5012207;28;19913;-68
2022/07/07 12:15:34;;;;;;;;;;;;;;;34.98;34.87;90943.94;5013733;28;19909;-69
2022/07/07 12:18:00;;;;;;;;;;;;;;;31.92;37.45;90952.34;5014450;28;19913;-69
2022/07/07 12:20:26;;;;;;;;;;;;;;;29.87;40.09;90949.94;5013991;28;19966;-69
2022/07/07 12:22:53;;;;;;;;;;;;;;;29.07;42.27;90945.78;5014226;28;19917;-68
2022/07/07 12:25:19;;;;;;;;;;;;;;;29.46;42.59;90948.50;5014039;28;20063;-67
2022/07/07 12:27:53;;;;;;;;;;;;;;;30.63;40.86;90942.22;5014398;28;20427;-67
2022/07/07 12:30:19;;;;;;;;;;;;;;;31.92;40.73;90938.59;5014150;28;19920;-69
2022/07/07 12:32:44;;;;;;;;;;;;;;;31.53;39.89;90943.25;4994370;28;19914;-69
2022/07/07 12:35:25;;;;;;;;;;;;;;;31.19;39.53;90939.13;4994221;28;19963;-70
2022/07/07 12:37:50;;;;;;;;;;;;;;;29.92;41.24;90932.97;4993801;28;19925;-70
2022/07/07 12:40:16;;;;;;;;;;;;;;;29.64;42.40;90941.84;4994164;28;19914;-69
2022/07/07 12:42:45;;;;;;;;;;;;;;;29.47;41.97;90933.59;4994462;28;19921;-68